Time;durP1;ratioP1;P1;durP2;ratioP2;P2;SDS_P1;SDS_P2;PMS_P1;PMS_P2;Temp;Humidity;BMP_temperature;BMP_pressure;BME280_temperature;BME280_humidity;BME280_pressure;Samples;Min_cycle;Max_cycle;Signal;HPM_P1;HPM_P2
2022/11/10 00:01:16;;;;;;;1.77;0.57;;;28.40;44.90;;;;;;5043520;28;20064;-67
2022/11/10 00:03:43;;;;;;;5.40;0.70;;;27.80;46.10;;;;;;5023338;28;20025;-65
2022/11/10 00:06:10;;;;;;;4.25;0.60;;;27.80;46.00;;;;;;5026530;28;20025;-68
2022/11/10 00:08:37;;;;;;;3.30;0.40;;;27.30;46.10;;;;;;5030744;28;20037;-65
2022/11/10 00:11:06;;;;;;;2.60;0.47;;;27.20;46.40;;;;;;5035932;28;20029;-66
2022/11/10 00:19:07;;;;;;;1.55;0.50;;;27.00;48.50;;;;;;5045100;28;20048;-67
2022/11/10 00:21:36;;;;;;;1.05;0.50;;;27.20;47.20;;;;;;5024508;28;20049;-68
2022/11/10 00:24:03;;;;;;;3.08;0.57;;;27.40;48.30;;;;;;5020935;28;20033;-67
2022/11/10 00:26:30;;;;;;;2.33;0.50;;;27.30;47.30;;;;;;5030144;28;20084;-68
2022/11/10 00:28:58;;;;;;;2.97;0.50;;;27.00;46.90;;;;;;5028332;28;20414;-68
2022/11/10 00:31:27;;;;;;;2.05;0.70;;;26.90;48.50;;;;;;5030832;28;20104;-69
2022/11/10 00:33:54;;;;;;;2.00;0.60;;;27.10;52.30;;;;;;5032935;28;20025;-68
2022/11/10 00:36:21;;;;;;;0.98;0.40;;;27.80;51.30;;;;;;5030416;28;20053;-68
2022/11/10 00:38:51;;;;;;;1.10;0.40;;;27.50;47.80;;;;;;5026460;28;20041;-69
2022/11/10 00:41:18;;;;;;;2.25;0.77;;;27.10;47.80;;;;;;5030259;28;20095;-68
2022/11/10 00:43:45;;;;;;;2.88;0.77;;;26.20;48.90;;;;;;5030741;28;20088;-65
2022/11/10 00:46:13;;;;;;;1.85;0.70;;;25.70;50.30;;;;;;5034545;28;20060;-68
2022/11/10 00:48:40;;;;;;;2.25;0.80;;;25.60;51.40;;;;;;5034788;28;20040;-68
2022/11/10 00:51:12;;;;;;;1.52;0.55;;;25.70;51.80;;;;;;5048385;28;20022;-68
2022/11/10 00:53:39;;;;;;;2.30;0.63;;;26.10;52.50;;;;;;5037689;28;20036;-68
2022/11/10 00:56:06;;;;;;;1.65;1.02;;;26.80;51.60;;;;;;5047065;28;20028;-67
2022/11/10 00:58:34;;;;;;;1.13;0.40;;;27.60;52.60;;;;;;5030615;28;20492;-67
2022/11/10 01:01:03;;;;;;;1.98;0.47;;;28.50;50.80;;;;;;5038714;28;20049;-67
2022/11/10 01:03:35;;;;;;;2.67;1.02;;;29.40;47.50;;;;;;5028238;28;20119;-69
2022/11/10 01:06:11;;;;;;;3.83;1.00;;;29.20;47.00;;;;;;5041768;28;20060;-69
2022/11/10 01:08:39;;;;;;;2.88;1.58;;;27.90;48.30;;;;;;5033317;28;20038;-68
2022/11/10 01:11:14;;;;;;;2.25;0.73;;;27.20;49.60;;;;;;5030354;28;20025;-69
2022/11/10 01:13:41;;;;;;;2.25;0.63;;;27.20;50.10;;;;;;5035281;28;20163;-68
2022/11/10 01:16:15;;;;;;;2.42;0.70;;;27.10;50.70;;;;;;5039017;28;20025;-68
2022/11/10 01:18:42;;;;;;;1.25;0.55;;;27.80;49.10;;;;;;5028462;28;20022;-68
2022/11/10 01:21:10;;;;;;;1.38;0.60;;;27.90;47.80;;;;;;5032399;28;20049;-67
2022/11/10 01:23:37;;;;;;;3.78;0.65;;;28.40;50.10;;;;;;5027409;28;20141;-67
2022/11/10 01:26:06;;;;;;;3.00;0.65;;;29.30;51.00;;;;;;5031867;28;20022;-68
2022/11/10 01:28:35;;;;;;;1.45;0.50;;;30.30;49.10;;;;;;5030485;28;20056;-67
2022/11/10 01:31:11;;;;;;;2.92;0.57;;;30.60;50.10;;;;;;5031933;28;20379;-66
2022/11/10 01:33:38;;;;;;;0.88;0.40;;;31.00;46.50;;;;;;5027445;28;20051;-68
2022/11/10 01:36:07;;;;;;;5.18;0.73;;;31.20;45.90;;;;;;5027248;28;20653;-68
2022/11/10 01:38:37;;;;;;;3.05;0.57;;;30.30;45.60;;;;;;5037107;28;20032;-68
2022/11/10 01:41:07;;;;;;;0.95;0.50;;;30.60;46.50;;;;;;5034455;28;20025;-68
2022/11/10 01:43:34;;;;;;;1.02;0.50;;;30.40;45.60;;;;;;5035339;28;20424;-68
2022/11/10 01:46:09;;;;;;;2.85;0.52;;;30.20;47.20;;;;;;5033587;28;20386;-69
2022/11/10 01:48:46;;;;;;;4.00;0.50;;;30.10;46.80;;;;;;5029395;28;20049;-69
2022/11/10 01:51:18;;;;;;;2.00;0.60;;;29.00;45.70;;;;;;5024115;28;20144;-69
2022/11/10 01:53:53;;;;;;;4.38;0.73;;;28.40;49.10;;;;;;5024983;28;20084;-68
2022/11/10 01:56:21;;;;;;;2.30;0.70;;;28.10;49.90;;;;;;5027391;28;20629;-69
2022/11/10 01:58:53;;;;;;;3.30;1.65;;;27.80;50.80;;;;;;5027873;28;20036;-69
2022/11/10 02:01:21;;;;;;;2.30;0.93;;;27.40;50.40;;;;;;5032666;28;20021;-67
2022/11/10 02:04:14;;;;;;;5.80;1.25;;;27.50;50.10;;;;;;5032416;28;20026;-67
2022/11/10 02:06:44;;;;;;;1.65;0.70;;;27.90;51.80;;;;;;5027216;28;20034;-69
2022/11/10 02:09:12;;;;;;;3.83;1.17;;;28.00;49.30;;;;;;5024031;28;20037;-68
2022/11/10 02:11:41;;;;;;;2.60;0.75;;;28.00;49.70;;;;;;5029839;28;20009;-70
2022/11/10 02:14:09;;;;;;;5.63;0.93;;;27.80;49.90;;;;;;5027084;28;20100;-68
2022/11/10 02:16:36;;;;;;;2.78;0.90;;;26.70;50.50;;;;;;5024418;28;20647;-69
2022/11/10 02:19:23;;;;;;;1.90;1.15;;;26.60;50.60;;;;;;5032019;28;20032;-68
2022/11/10 02:21:50;;;;;;;2.95;0.90;;;26.60;51.70;;;;;;5025548;28;20131;-69
2022/11/10 02:24:17;;;;;;;1.85;1.00;;;26.60;54.30;;;;;;5031390;28;20025;-68
2022/11/10 02:26:54;;;;;;;4.03;1.00;;;26.90;51.80;;;;;;5046799;28;20029;-68
2022/11/10 02:29:22;;;;;;;2.65;1.00;;;26.90;50.40;;;;;;5028206;28;20025;-69
2022/11/10 02:31:49;;;;;;;3.83;1.10;;;26.70;51.20;;;;;;5024842;28;20022;-68
2022/11/10 02:34:16;;;;;;;2.42;1.10;;;26.20;52.20;;;;;;5035994;28;20056;-69
2022/11/10 02:36:44;;;;;;;2.33;0.88;;;25.90;52.90;;;;;;5037012;28;20104;-69
2022/11/10 02:39:11;;;;;;;2.95;1.00;;;25.70;52.20;;;;;;5035167;28;20022;-67
2022/11/10 02:41:38;;;;;;;2.95;0.90;;;25.60;52.50;;;;;;5025746;28;20075;-70
2022/11/10 02:44:07;;;;;;;4.97;1.40;;;25.50;53.80;;;;;;5023327;28;20033;-69
2022/11/10 02:46:36;;;;;;;3.45;1.10;;;25.60;53.50;;;;;;5044850;28;20028;-69
2022/11/10 02:49:03;;;;;;;6.32;1.00;;;25.90;55.60;;;;;;5032482;28;20034;-70
2022/11/10 02:51:31;;;;;;;2.55;1.27;;;25.90;54.30;;;;;;5043019;28;20024;-70
2022/11/10 02:53:58;;;;;;;2.65;0.90;;;25.60;55.30;;;;;;5039363;28;20501;-70
2022/11/10 02:56:25;;;;;;;1.85;1.00;;;25.60;55.40;;;;;;5035229;28;20092;-69
2022/11/10 02:58:53;;;;;;;7.85;1.27;;;25.60;54.90;;;;;;5038949;28;20083;-70
2022/11/10 03:01:20;;;;;;;3.58;0.90;;;25.10;54.80;;;;;;5028478;28;20041;-70
2022/11/10 03:03:47;;;;;;;5.38;1.23;;;25.20;55.40;;;;;;5033723;28;20025;-70
2022/11/10 03:06:14;;;;;;;3.85;0.90;;;25.30;55.60;;;;;;5046741;28;20025;-69
2022/11/10 03:08:42;;;;;;;5.45;0.98;;;25.60;54.80;;;;;;5040730;28;20051;-69
2022/11/10 03:11:09;;;;;;;0.88;0.68;;;25.50;55.70;;;;;;5038519;28;20017;-68
2022/11/10 03:13:36;;;;;;;2.70;0.80;;;25.30;56.40;;;;;;5026838;28;20017;-69
2022/11/10 03:16:04;;;;;;;4.00;0.80;;;25.50;55.60;;;;;;5029338;28;20111;-69
2022/11/10 03:18:31;;;;;;;2.05;0.88;;;25.40;55.60;;;;;;5033702;28;20021;-66
2022/11/10 03:20:58;;;;;;;4.07;0.82;;;25.30;56.80;;;;;;5027945;28;20482;-66
2022/11/10 03:23:26;;;;;;;4.50;1.00;;;25.40;56.20;;;;;;5029458;28;20029;-66
2022/11/10 03:25:53;;;;;;;2.85;0.80;;;25.40;56.00;;;;;;5028250;28;20070;-68
2022/11/10 03:28:20;;;;;;;5.32;0.93;;;25.30;55.50;;;;;;5027126;28;20025;-66
2022/11/10 03:30:47;;;;;;;4.88;1.25;;;25.30;55.40;;;;;;5044056;28;20033;-67
2022/11/10 03:33:15;;;;;;;1.70;0.90;;;25.10;54.90;;;;;;5032021;28;20017;-64
2022/11/10 03:35:42;;;;;;;1.63;0.63;;;25.00;55.10;;;;;;5044675;28;20401;-64
2022/11/10 03:38:09;;;;;;;1.98;1.00;;;24.90;55.00;;;;;;5028770;28;20025;-63
2022/11/10 03:40:36;;;;;;;2.08;1.00;;;25.00;56.20;;;;;;5036274;28;20096;-65
2022/11/10 03:43:03;;;;;;;11.43;1.15;;;25.00;57.10;;;;;;5042889;28;20033;-64
2022/11/10 03:45:30;;;;;;;4.70;0.80;;;25.30;56.40;;;;;;5035137;28;20024;-67
2022/11/10 03:47:58;;;;;;;2.65;0.70;;;25.30;57.00;;;;;;5040929;28;20166;-65
2022/11/10 03:50:25;;;;;;;4.40;0.85;;;25.80;57.20;;;;;;5034816;28;20470;-65
2022/11/10 03:52:52;;;;;;;2.60;0.80;;;26.50;56.50;;;;;;5042797;28;20060;-65
2022/11/10 03:55:19;;;;;;;3.92;0.60;;;27.00;54.20;;;;;;5021701;28;20039;-65
2022/11/10 03:57:47;;;;;;;2.88;0.63;;;27.20;53.90;;;;;;5017907;28;20048;-65
2022/11/10 04:00:14;;;;;;;1.88;0.60;;;27.20;53.50;;;;;;5035595;28;20363;-64
2022/11/10 04:02:42;;;;;;;4.97;0.90;;;27.40;52.90;;;;;;5017026;28;20026;-64
2022/11/10 04:10:45;;;;;;;1.98;0.80;;;27.40;53.30;;;;;;5028484;28;20037;-66
2022/11/10 04:15:58;;;;;;;1.40;0.80;;;26.80;54.30;;;;;;5021131;28;20088;-64
2022/11/10 04:18:25;;;;;;;2.40;0.60;;;26.70;54.40;;;;;;5032601;28;20105;-64
2022/11/10 04:21:02;;;;;;;1.48;0.65;;;26.40;53.80;;;;;;5039539;28;20032;-65
2022/11/10 04:23:35;;;;;;;1.77;0.50;;;25.80;54.50;;;;;;5028891;28;20091;-65
2022/11/10 04:28:49;;;;;;;2.47;0.73;;;25.00;56.30;;;;;;5048933;28;20052;-66
2022/11/10 04:31:18;;;;;;;2.38;0.80;;;25.00;56.40;;;;;;5027779;28;20147;-66
2022/11/10 04:33:46;;;;;;;4.10;0.50;;;25.10;57.20;;;;;;5036538;28;20121;-67
2022/11/10 04:36:17;;;;;;;1.00;0.50;;;25.20;57.40;;;;;;5029731;28;20116;-65
2022/11/10 04:38:44;;;;;;;2.63;0.70;;;25.20;57.30;;;;;;5022184;28;20018;-65
2022/11/10 04:41:12;;;;;;;2.13;0.60;;;24.90;57.50;;;;;;5037581;28;20021;-65
2022/11/10 04:43:40;;;;;;;3.00;0.82;;;24.80;59.00;;;;;;5034866;28;20024;-65
2022/11/10 04:46:21;;;;;;;1.33;0.60;;;25.00;58.30;;;;;;5031933;28;20033;-63
2022/11/10 04:48:48;;;;;;;3.05;0.82;;;25.20;58.10;;;;;;5045268;28;20045;-64
2022/11/10 04:51:17;;;;;;;2.10;0.50;;;25.60;58.50;;;;;;5029374;28;20143;-64
2022/11/10 04:53:44;;;;;;;2.35;0.63;;;25.70;56.90;;;;;;5022897;28;20045;-65
2022/11/10 04:56:19;;;;;;;4.32;0.82;;;26.10;56.80;;;;;;5029958;28;20035;-66
2022/11/10 04:58:46;;;;;;;2.60;0.80;;;26.50;56.30;;;;;;5028425;28;20091;-67
2022/11/10 05:01:16;;;;;;;3.92;0.85;;;26.70;55.60;;;;;;5034884;28;20028;-66
2022/11/10 05:03:44;;;;;;;5.45;0.60;;;26.60;55.30;;;;;;5033803;28;20036;-66
2022/11/10 05:06:11;;;;;;;2.22;0.60;;;26.40;57.90;;;;;;5035407;28;20084;-66
2022/11/10 05:08:39;;;;;;;2.55;0.68;;;26.30;57.00;;;;;;5027550;28;20038;-66
2022/11/10 05:11:07;;;;;;;7.05;0.90;;;26.30;56.80;;;;;;5035813;28;20025;-66
2022/11/10 05:13:34;;;;;;;2.00;0.50;;;26.10;56.70;;;;;;5040437;28;20028;-66
2022/11/10 05:16:02;;;;;;;4.53;0.75;;;25.70;57.40;;;;;;5030921;28;20029;-66
2022/11/10 05:18:30;;;;;;;2.03;0.57;;;25.70;58.60;;;;;;5030472;28;20033;-66
2022/11/10 05:20:57;;;;;;;3.58;0.75;;;25.80;58.30;;;;;;5045475;28;20079;-67
2022/11/10 05:23:36;;;;;;;2.90;0.80;;;25.60;57.90;;;;;;5032243;28;20112;-67
2022/11/10 05:26:15;;;;;;;4.75;0.70;;;25.40;59.20;;;;;;5022017;28;20029;-66
2022/11/10 05:28:44;;;;;;;1.35;0.77;;;25.60;59.20;;;;;;5048591;28;20038;-65
2022/11/10 05:31:12;;;;;;;1.80;0.50;;;25.80;58.10;;;;;;5025869;28;20024;-66
2022/11/10 05:33:39;;;;;;;1.65;0.57;;;25.80;59.00;;;;;;5026110;28;20029;-66
2022/11/10 05:36:07;;;;;;;3.08;0.60;;;25.80;59.00;;;;;;5022434;28;20663;-66
2022/11/10 05:38:35;;;;;;;2.60;0.70;;;25.90;59.00;;;;;;5045589;28;20025;-66
2022/11/10 05:41:02;;;;;;;2.00;0.68;;;25.80;59.00;;;;;;5031083;28;20022;-67
2022/11/10 05:43:29;;;;;;;2.78;0.63;;;25.60;58.20;;;;;;5029988;28;20080;-67
2022/11/10 05:45:56;;;;;;;1.52;0.50;;;25.20;59.20;;;;;;5028359;28;20430;-66
2022/11/10 05:48:24;;;;;;;9.00;0.85;;;25.10;60.00;;;;;;5030411;28;20033;-66
2022/11/10 05:50:51;;;;;;;1.75;0.60;;;25.20;60.00;;;;;;5033636;28;20446;-66
2022/11/10 05:53:19;;;;;;;3.92;1.15;;;25.20;59.40;;;;;;5036611;28;20037;-67
2022/11/10 05:55:46;;;;;;;2.08;0.50;;;25.30;59.60;;;;;;5025294;28;20029;-67
2022/11/10 05:58:13;;;;;;;2.42;0.60;;;25.20;59.30;;;;;;5026988;28;20032;-64
2022/11/10 06:00:40;;;;;;;3.95;0.63;;;25.20;59.30;;;;;;5021253;28;20487;-65
2022/11/10 06:03:14;;;;;;;2.65;0.90;;;25.10;59.40;;;;;;5029577;28;20055;-65
2022/11/10 06:05:41;;;;;;;2.00;0.52;;;25.10;59.00;;;;;;5032161;28;20028;-64
2022/11/10 06:08:09;;;;;;;4.32;0.43;;;25.10;59.20;;;;;;5026814;28;20052;-64
2022/11/10 06:10:37;;;;;;;4.00;0.70;;;25.00;58.80;;;;;;5025677;28;20547;-65
2022/11/10 06:13:05;;;;;;;3.10;0.65;;;24.80;57.60;;;;;;5029913;28;20099;-64
2022/11/10 06:15:32;;;;;;;3.85;0.70;;;24.70;58.60;;;;;;5026952;28;20070;-65
2022/11/10 06:17:59;;;;;;;3.65;0.75;;;24.80;59.10;;;;;;5028833;28;20030;-63
2022/11/10 06:20:27;;;;;;;4.15;0.85;;;24.80;58.40;;;;;;5031564;28;20029;-63
2022/11/10 06:23:05;;;;;;;5.43;0.98;;;24.70;57.50;;;;;;5032963;28;20029;-64
2022/11/10 06:25:35;;;;;;;0.85;0.45;;;24.70;58.00;;;;;;5028177;28;20025;-64
2022/11/10 06:28:02;;;;;;;3.40;0.80;;;24.90;58.60;;;;;;5031076;28;20108;-64
2022/11/10 06:30:31;;;;;;;0.45;0.30;;;25.00;56.90;;;;;;5026307;28;20116;-64
2022/11/10 06:32:58;;;;;;;2.17;0.60;;;25.00;56.40;;;;;;5031810;28;20056;-64
2022/11/10 06:35:26;;;;;;;2.35;0.55;;;25.00;56.00;;;;;;5027505;28;20390;-64
2022/11/10 06:38:05;;;;;;;5.68;0.75;;;25.00;55.90;;;;;;5030137;28;20037;-64
2022/11/10 06:40:32;;;;;;;1.95;0.60;;;24.90;56.50;;;;;;5029589;28;20063;-64
2022/11/10 06:43:00;;;;;;;1.27;0.40;;;24.90;56.30;;;;;;5025429;28;20029;-64
2022/11/10 06:45:28;;;;;;;4.97;0.52;;;25.10;55.90;;;;;;5029382;28;20095;-64
2022/11/10 06:48:03;;;;;;;1.73;0.55;;;25.10;55.00;;;;;;5029807;28;20091;-65
2022/11/10 06:50:30;;;;;;;3.90;0.65;;;25.00;55.60;;;;;;5024299;28;20109;-64
2022/11/10 06:52:59;;;;;;;2.45;0.70;;;24.80;55.70;;;;;;5031522;28;20060;-64
2022/11/10 06:55:26;;;;;;;2.92;0.57;;;24.20;57.00;;;;;;5029731;28;20041;-64
2022/11/10 06:57:53;;;;;;;4.90;0.80;;;24.00;57.30;;;;;;5026490;28;20033;-64
2022/11/10 07:00:21;;;;;;;2.17;0.50;;;23.90;58.00;;;;;;5030966;28;20021;-63
2022/11/10 07:02:57;;;;;;;9.13;1.83;;;23.80;57.90;;;;;;5021666;28;20025;-63
2022/11/10 07:05:24;;;;;;;6.47;1.50;;;23.80;57.90;;;;;;5031156;28;20068;-64
2022/11/10 07:07:51;;;;;;;4.55;1.42;;;23.80;58.30;;;;;;5023773;28;20564;-64
2022/11/10 07:10:19;;;;;;;2.72;0.80;;;23.70;57.70;;;;;;5025457;28;20024;-64
2022/11/10 07:12:46;;;;;;;3.17;0.80;;;23.40;58.30;;;;;;5026087;28;20056;-64
2022/11/10 07:15:13;;;;;;;0.70;0.40;;;23.40;58.60;;;;;;5025439;28;20032;-63
2022/11/10 07:17:41;;;;;;;4.20;0.65;;;23.20;58.80;;;;;;5046709;28;20111;-64
2022/11/10 07:20:09;;;;;;;6.10;0.80;;;23.00;59.70;;;;;;5026962;28;20051;-63
2022/11/10 07:22:36;;;;;;;4.68;0.85;;;22.80;60.30;;;;;;5024247;28;20025;-65
2022/11/10 07:25:03;;;;;;;2.30;0.80;;;22.60;60.90;;;;;;5026677;28;20026;-64
2022/11/10 07:27:33;;;;;;;2.05;0.77;;;22.50;61.60;;;;;;5025116;28;20029;-63
2022/11/10 07:30:01;;;;;;;2.85;0.47;;;22.40;61.80;;;;;;5023833;28;20037;-65
2022/11/10 07:32:28;;;;;;;5.60;0.63;;;22.20;62.50;;;;;;5028008;28;20014;-65
2022/11/10 07:34:55;;;;;;;3.15;1.25;;;22.00;63.70;;;;;;5042705;28;20545;-64
2022/11/10 07:37:23;;;;;;;4.72;0.70;;;21.90;64.90;;;;;;5030279;28;20116;-64
2022/11/10 07:39:50;;;;;;;3.75;0.60;;;21.70;65.20;;;;;;5031549;28;20030;-62
2022/11/10 07:42:17;;;;;;;2.97;0.73;;;21.50;65.00;;;;;;5027120;28;20034;-64
2022/11/10 07:44:45;;;;;;;1.80;0.80;;;21.40;65.70;;;;;;5026978;28;20026;-63
2022/11/10 07:47:12;;;;;;;4.22;0.68;;;21.30;66.30;;;;;;5034167;28;20029;-63
2022/11/10 07:49:39;;;;;;;1.15;0.65;;;21.10;67.00;;;;;;5029280;28;20033;-64
2022/11/10 07:52:06;;;;;;;2.63;0.80;;;21.00;68.60;;;;;;5026429;28;20041;-63
2022/11/10 07:54:33;;;;;;;1.45;0.75;;;20.80;69.90;;;;;;5025574;28;20456;-62
2022/11/10 07:57:01;;;;;;;1.20;0.50;;;20.70;70.00;;;;;;5026817;28;20021;-62
2022/11/10 07:59:28;;;;;;;2.97;0.90;;;20.60;70.80;;;;;;5028377;28;20099;-62
2022/11/10 08:01:55;;;;;;;2.97;0.50;;;20.50;71.70;;;;;;5033345;28;20033;-63
2022/11/10 08:04:22;;;;;;;2.22;0.52;;;20.40;72.60;;;;;;5029865;28;20057;-63
2022/11/10 08:06:49;;;;;;;4.97;0.60;;;20.30;73.20;;;;;;5026430;28;20071;-63
2022/11/10 08:09:17;;;;;;;2.75;0.80;;;20.20;73.50;;;;;;5030472;28;20404;-62
2022/11/10 08:11:44;;;;;;;2.63;0.70;;;20.10;74.30;;;;;;5038254;28;20029;-62
2022/11/10 08:14:11;;;;;;;1.27;0.57;;;20.00;75.30;;;;;;5027232;28;20658;-62
2022/11/10 08:16:38;;;;;;;3.78;0.60;;;19.90;76.60;;;;;;5027426;28;20394;-63
2022/11/10 08:19:06;;;;;;;1.65;0.40;;;19.80;77.90;;;;;;5034278;28;20472;-62
2022/11/10 08:21:33;;;;;;;1.80;0.43;;;19.70;79.40;;;;;;5034716;28;20645;-63
2022/11/10 08:24:00;;;;;;;1.63;0.50;;;19.60;79.80;;;;;;5026257;28;20036;-63
2022/11/10 08:26:27;;;;;;;5.40;0.82;;;19.50;80.90;;;;;;5025172;28;20060;-60
2022/11/10 08:28:54;;;;;;;2.90;0.50;;;19.50;81.60;;;;;;5031049;28;20124;-60
2022/11/10 08:31:22;;;;;;;3.08;0.68;;;19.40;82.40;;;;;;5029145;28;20057;-60
2022/11/10 08:33:49;;;;;;;3.95;0.55;;;19.30;83.60;;;;;;5028617;28;20029;-60
2022/11/10 08:36:16;;;;;;;4.28;0.98;;;19.20;84.20;;;;;;5038517;28;20025;-60
2022/11/10 08:38:43;;;;;;;2.63;0.90;;;19.20;84.90;;;;;;5027711;28;20057;-60
2022/11/10 08:41:11;;;;;;;3.75;1.23;;;19.10;85.60;;;;;;5022524;28;20092;-60
2022/11/10 08:43:38;;;;;;;2.42;0.93;;;19.00;86.50;;;;;;5039285;28;20376;-60
2022/11/10 08:46:05;;;;;;;3.22;0.60;;;18.90;86.90;;;;;;5033326;28;20028;-60
2022/11/10 08:48:32;;;;;;;2.42;1.23;;;18.90;88.30;;;;;;5039282;28;20051;-60
2022/11/10 08:51:03;;;;;;;2.35;0.65;;;18.80;89.20;;;;;;5036190;28;20161;-60
2022/11/10 08:53:30;;;;;;;2.60;0.60;;;18.80;90.10;;;;;;5037969;28;20045;-60
2022/11/10 08:56:00;;;;;;;2.33;0.50;;;18.70;90.50;;;;;;5038825;28;20068;-60
2022/11/10 08:58:27;;;;;;;2.70;0.60;;;18.60;90.90;;;;;;5033445;28;20048;-60
2022/11/10 09:00:55;;;;;;;4.25;0.60;;;18.50;91.40;;;;;;5034928;28;20029;-61
2022/11/10 09:03:24;;;;;;;2.03;0.93;;;18.40;91.60;;;;;;5033771;28;20104;-60
2022/11/10 09:05:53;;;;;;;4.20;0.82;;;18.40;92.00;;;;;;5042395;28;20032;-60
2022/11/10 09:08:20;;;;;;;3.55;1.77;;;18.30;92.50;;;;;;5035501;28;20052;-60
2022/11/10 09:10:50;;;;;;;4.47;0.90;;;18.30;92.90;;;;;;5030604;28;20024;-60
2022/11/10 09:13:20;;;;;;;4.45;0.85;;;18.20;93.00;;;;;;5031594;28;20049;-59
2022/11/10 09:15:47;;;;;;;7.93;1.30;;;18.20;93.40;;;;;;5035630;28;20028;-60
2022/11/10 09:18:16;;;;;;;3.03;0.82;;;18.20;93.50;;;;;;5041861;28;20396;-60
2022/11/10 09:20:43;;;;;;;6.05;1.13;;;18.20;93.70;;;;;;5032910;28;20018;-62
2022/11/10 09:23:13;;;;;;;2.83;1.08;;;18.10;94.00;;;;;;5016291;28;20119;-59
2022/11/10 09:25:41;;;;;;;4.47;1.23;;;18.10;94.10;;;;;;5026291;28;20023;-60
2022/11/10 09:28:15;;;;;;;4.63;0.98;;;18.00;94.30;;;;;;5036062;28;20034;-61
2022/11/10 09:30:46;;;;;;;2.33;0.65;;;18.00;94.60;;;;;;5039701;28;20029;-61
2022/11/10 09:33:13;;;;;;;4.75;0.70;;;17.90;94.90;;;;;;5013412;28;20029;-61
2022/11/10 09:35:41;;;;;;;6.32;1.10;;;17.80;95.10;;;;;;5032219;28;20482;-61
2022/11/10 09:38:10;;;;;;;7.30;1.00;;;17.80;95.40;;;;;;5039544;28;20485;-61
2022/11/10 09:41:03;;;;;;;5.18;0.70;;;17.70;95.40;;;;;;5033141;28;20065;-61
2022/11/10 09:43:51;;;;;;;4.53;0.90;;;17.60;95.80;;;;;;5027332;28;20083;-60
2022/11/10 09:46:35;;;;;;;5.95;0.70;;;17.60;95.70;;;;;;5020968;28;20034;-60
2022/11/10 09:49:26;;;;;;;1.60;0.55;;;17.40;96.10;;;;;;5033225;28;20038;-61
2022/11/10 09:51:54;;;;;;;3.00;0.88;;;17.40;96.40;;;;;;5036319;28;20098;-61
2022/11/10 09:54:39;;;;;;;2.15;0.50;;;17.30;96.50;;;;;;5039728;28;20716;-61
2022/11/10 09:57:11;;;;;;;5.95;1.05;;;17.30;96.60;;;;;;5035983;28;20032;-62
2022/11/10 09:59:38;;;;;;;0.98;0.52;;;17.30;96.70;;;;;;5036782;28;20024;-61
2022/11/10 10:02:20;;;;;;;1.45;0.70;;;17.30;96.80;;;;;;5035191;28;20026;-61
2022/11/10 10:05:00;;;;;;;1.58;0.60;;;17.30;96.80;;;;;;5028623;28;20033;-61
2022/11/10 10:08:02;;;;;;;3.38;0.85;;;17.30;96.80;;;;;;5029413;28;20433;-60
2022/11/10 10:10:35;;;;;;;3.25;0.77;;;17.30;96.80;;;;;;5032238;28;20091;-61
2022/11/10 10:13:11;;;;;;;4.07;0.65;;;17.20;97.00;;;;;;5043958;28;20444;-61
2022/11/10 10:15:58;;;;;;;6.05;0.90;;;17.20;97.40;;;;;;5033497;28;20018;-62
2022/11/10 10:18:53;;;;;;;7.60;0.90;;;17.20;97.30;;;;;;5041068;28;20592;-62
2022/11/10 10:21:38;;;;;;;2.10;0.60;;;17.30;97.30;;;;;;5024397;28;20389;-61
2022/11/10 10:24:10;;;;;;;4.22;0.50;;;17.20;97.50;;;;;;5024182;28;20072;-61
2022/11/10 10:26:56;;;;;;;2.15;0.70;;;17.10;97.30;;;;;;5043231;28;20028;-61
2022/11/10 10:29:27;;;;;;;2.35;0.60;;;17.20;97.40;;;;;;5028959;28;20037;-61
2022/11/10 10:31:57;;;;;;;6.80;0.98;;;17.00;97.60;;;;;;5037300;28;20025;-61
2022/11/10 10:34:30;;;;;;;2.38;0.50;;;16.90;98.00;;;;;;5041790;28;20033;-61
2022/11/10 10:36:58;;;;;;;5.90;0.80;;;16.90;98.30;;;;;;5031200;28;20132;-61
2022/11/10 10:39:43;;;;;;;0.65;0.40;;;16.80;98.80;;;;;;5028042;28;20063;-61
2022/11/10 10:42:30;;;;;;;3.85;1.15;;;16.70;98.80;;;;;;5025664;28;20120;-61
2022/11/10 10:45:25;;;;;;;2.35;0.60;;;16.70;99.00;;;;;;5024410;28;20026;-61
2022/11/10 10:47:55;;;;;;;2.55;0.82;;;16.70;99.50;;;;;;5021536;28;20414;-61
2022/11/10 10:50:27;;;;;;;1.92;0.50;;;16.60;99.70;;;;;;5023287;28;20771;-61
2022/11/10 10:53:17;;;;;;;3.00;0.77;;;16.60;99.70;;;;;;5025099;28;20041;-61
2022/11/10 10:56:02;;;;;;;3.67;0.70;;;16.60;99.80;;;;;;5024692;28;20030;-61
2022/11/10 10:58:47;;;;;;;3.30;0.70;;;16.60;99.90;;;;;;5028081;28;20033;-61
2022/11/10 11:01:15;;;;;;;5.28;0.88;;;16.60;99.80;;;;;;5023549;28;20405;-61
2022/11/10 11:03:46;;;;;;;3.22;0.65;;;16.50;99.90;;;;;;5024651;28;20021;-61
2022/11/10 11:06:16;;;;;;;2.53;0.60;;;16.50;99.90;;;;;;5021845;28;20040;-61
2022/11/10 11:09:08;;;;;;;6.47;0.95;;;16.40;99.90;;;;;;5026850;28;20106;-61
2022/11/10 11:11:38;;;;;;;2.17;0.50;;;16.30;99.90;;;;;;5026461;28;20620;-60
2022/11/10 11:14:17;;;;;;;1.50;0.70;;;16.20;99.90;;;;;;5030051;28;21039;-60
2022/11/10 11:16:55;;;;;;;2.40;0.55;;;16.20;99.90;;;;;;5027846;28;20045;-61
2022/11/10 11:19:26;;;;;;;2.00;0.80;;;16.10;99.90;;;;;;5032080;28;20045;-61
2022/11/10 11:22:15;;;;;;;2.47;0.60;;;16.10;99.90;;;;;;5028338;28;20025;-61
2022/11/10 11:24:51;;;;;;;4.90;0.77;;;16.00;99.90;;;;;;5028628;28;20057;-60
2022/11/10 11:27:48;;;;;;;2.70;0.77;;;15.90;99.90;;;;;;5026586;28;20033;-60
2022/11/10 11:30:18;;;;;;;3.70;0.80;;;15.90;99.90;;;;;;5025579;28;20124;-64
2022/11/10 11:33:05;;;;;;;4.20;1.00;;;15.80;99.90;;;;;;5038590;28;20021;-60
2022/11/10 11:35:58;;;;;;;5.63;0.50;;;15.80;99.90;;;;;;5023145;28;20029;-61
2022/11/10 11:38:46;;;;;;;3.33;0.80;;;15.70;99.90;;;;;;5027797;28;20022;-60
2022/11/10 11:41:47;;;;;;;3.97;0.70;;;15.70;99.90;;;;;;5028628;28;20029;-60
2022/11/10 11:44:32;;;;;;;4.00;0.88;;;15.70;99.90;;;;;;5025587;28;20032;-60
2022/11/10 11:47:41;;;;;;;1.98;0.50;;;15.70;99.90;;;;;;5036809;28;20051;-60
2022/11/10 11:50:29;;;;;;;7.65;0.93;;;15.60;99.90;;;;;;5062792;28;20044;-60
2022/11/10 11:53:28;;;;;;;2.67;0.77;;;15.40;99.90;;;;;;5063437;28;20055;-60
2022/11/10 11:56:39;;;;;;;4.57;0.70;;;15.30;99.90;;;;;;5026971;28;20470;-61
2022/11/10 11:59:21;;;;;;;2.78;0.70;;;15.20;99.90;;;;;;5025431;28;20029;-61
2022/11/10 12:01:51;;;;;;;3.38;1.75;;;15.10;99.90;;;;;;5024148;28;20045;-62
2022/11/10 12:04:21;;;;;;;4.55;0.80;;;15.00;99.90;;;;;;5020020;28;20091;-60
2022/11/10 12:07:09;;;;;;;4.70;1.60;;;14.90;99.90;;;;;;5025071;28;20032;-60
2022/11/10 12:09:40;;;;;;;4.60;1.27;;;14.70;99.90;;;;;;5039004;28;20032;-59
2022/11/10 12:12:30;;;;;;;3.80;0.88;;;14.60;99.90;;;;;;5034411;28;20099;-60
2022/11/10 12:15:15;;;;;;;2.08;0.93;;;14.60;99.90;;;;;;5026524;28;20561;-60
2022/11/10 12:18:03;;;;;;;3.83;1.10;;;14.50;99.90;;;;;;5033022;28;20044;-61
2022/11/10 12:20:43;;;;;;;3.42;0.88;;;14.40;99.90;;;;;;5026946;28;20084;-61
2022/11/10 12:23:35;;;;;;;3.58;0.73;;;14.30;99.90;;;;;;5016879;28;20382;-60
2022/11/10 12:26:24;;;;;;;3.03;1.00;;;14.20;99.90;;;;;;5022153;28;20050;-61
2022/11/10 12:28:59;;;;;;;2.05;0.80;;;14.20;99.90;;;;;;5031689;28;20040;-60
2022/11/10 12:31:30;;;;;;;4.47;0.90;;;14.10;99.90;;;;;;5030187;28;20155;-60
2022/11/10 12:34:04;;;;;;;2.50;0.82;;;14.00;99.90;;;;;;5031912;28;20032;-61
2022/11/10 12:36:31;;;;;;;4.07;1.00;;;13.90;99.90;;;;;;5030819;28;20025;-60
2022/11/10 12:39:18;;;;;;;6.70;1.10;;;13.90;99.90;;;;;;5030136;28;20075;-60
2022/11/10 12:41:53;;;;;;;4.32;1.20;;;13.80;99.90;;;;;;5040667;28;20159;-62
2022/11/10 12:44:22;;;;;;;;;;;13.70;99.90;;;;;;5023686;28;20064;-61
2022/11/10 12:46:57;;;;;;;2.95;1.00;;;13.70;99.90;;;;;;5027271;28;19913;-62
2022/11/10 12:49:37;;;;;;;9.68;1.20;;;13.60;99.90;;;;;;5037210;28;20561;-61
2022/11/10 12:52:13;;;;;;;6.72;1.10;;;13.60;99.90;;;;;;5027277;28;20087;-61
2022/11/10 12:54:44;;;;;;;6.80;1.10;;;13.60;99.90;;;;;;5045968;28;20032;-61
2022/11/10 12:57:16;;;;;;;5.50;0.95;;;13.50;99.90;;;;;;5030428;28;20029;-61
2022/11/10 12:59:55;;;;;;;4.65;0.80;;;13.50;99.90;;;;;;5045819;28;20020;-61
2022/11/10 13:02:29;;;;;;;9.68;1.55;;;13.50;99.90;;;;;;5032059;28;20025;-60
2022/11/10 13:05:14;;;;;;;3.85;1.20;;;13.40;99.90;;;;;;5041039;28;20025;-61
2022/11/10 13:07:49;;;;;;;5.18;1.55;;;13.40;99.90;;;;;;5030732;28;20026;-61
2022/11/10 13:10:23;;;;;;;3.67;1.35;;;13.40;99.90;;;;;;5031470;28;20033;-60
2022/11/10 13:13:19;;;;;;;6.03;1.30;;;13.40;99.90;;;;;;5030160;28;20099;-57
2022/11/10 13:15:49;;;;;;;6.43;1.85;;;13.30;99.90;;;;;;5038208;28;20048;-59
2022/11/10 13:18:31;;;;;;;3.92;1.50;;;13.30;99.90;;;;;;5030821;28;20109;-58
2022/11/10 13:20:59;;;;;;;9.45;1.50;;;13.30;99.90;;;;;;5031301;28;20490;-58
2022/11/10 13:23:30;;;;;;;4.45;1.80;;;13.20;99.90;;;;;;5025714;28;20104;-60
2022/11/10 13:26:09;;;;;;;9.73;1.92;;;13.10;99.90;;;;;;5025116;28;20028;-59
2022/11/10 13:28:49;;;;;;;7.35;2.30;;;13.10;99.90;;;;;;5030595;28;20371;-60